createdAt,value
2018-09-04T00:00:52.191Z,64.40
2018-09-04T00:01:52.165Z,61.90
2018-09-04T00:02:52.118Z,61.70
2018-09-04T00:03:52.079Z,62.30
2018-09-04T00:04:52.046Z,61.30
2018-09-04T00:05:52.017Z,63.40
2018-09-04T00:06:51.983Z,63.50
2018-09-04T00:07:51.949Z,64.20
2018-09-04T00:08:51.917Z,62.00
2018-09-04T00:09:51.893Z,64.70
2018-09-04T00:10:51.851Z,63.80
2018-09-04T00:11:51.815Z,61.80
2018-09-04T00:12:51.776Z,62.50
2018-09-04T00:13:51.742Z,63.30
2018-09-04T00:14:51.712Z,65.30
2018-09-04T00:15:51.682Z,63.30
2018-09-04T00:16:51.650Z,64.40
2018-09-04T00:17:51.611Z,62.90
2018-09-04T00:18:51.581Z,62.10
2018-09-04T00:19:51.549Z,64.10
2018-09-04T00:20:51.514Z,65.00
2018-09-04T00:21:51.483Z,64.80
2018-09-04T00:22:51.448Z,64.40
2018-09-04T00:23:51.411Z,64.90
2018-09-04T00:24:51.377Z,63.10
2018-09-04T00:25:51.344Z,63.30
2018-09-04T00:26:51.316Z,65.10
2018-09-04T00:27:51.280Z,63.10
2018-09-04T00:28:51.248Z,64.00
2018-09-04T00:29:51.213Z,64.60
2018-09-04T00:30:51.179Z,65.10
2018-09-04T00:31:51.144Z,64.70
2018-09-04T00:32:51.114Z,65.50
2018-09-04T00:33:51.079Z,64.50
2018-09-04T00:34:51.048Z,65.00
2018-09-04T00:35:51.023Z,65.30
2018-09-04T00:36:50.974Z,63.60
2018-09-04T00:37:50.940Z,64.00
2018-09-04T00:38:50.910Z,65.80
2018-09-04T00:39:50.877Z,63.80
2018-09-04T00:40:50.851Z,63.80
2018-09-04T00:41:50.811Z,62.50
2018-09-04T00:42:50.778Z,65.40
2018-09-04T00:43:50.745Z,64.50
2018-09-04T00:44:50.706Z,65.50
2018-09-04T00:45:50.674Z,64.90
2018-09-04T00:46:50.640Z,65.00
2018-09-04T00:47:50.611Z,65.20
2018-09-04T00:48:50.579Z,65.00
2018-09-04T00:49:50.541Z,63.50
2018-09-04T00:50:50.507Z,65.00
2018-09-04T00:51:50.485Z,65.40
2018-09-04T00:52:50.459Z,64.50
2018-09-04T00:53:50.412Z,66.50
2018-09-04T00:54:50.375Z,65.60
2018-09-04T00:55:50.342Z,66.90
2018-09-04T00:56:50.309Z,66.20
2018-09-04T00:57:50.278Z,64.80
2018-09-04T00:58:50.279Z,65.80
2018-09-04T00:59:50.214Z,68.90
2018-09-04T01:00:50.181Z,66.80
2018-09-04T01:01:50.143Z,67.10
2018-09-04T01:02:50.107Z,67.70
2018-09-04T01:03:50.075Z,65.50
2018-09-04T01:04:50.037Z,67.30
2018-09-04T01:05:50.010Z,66.20
2018-09-04T01:06:49.976Z,66.10
2018-09-04T01:07:49.945Z,67.40
2018-09-04T01:08:49.915Z,66.90
2018-09-04T01:09:49.891Z,66.20
2018-09-04T01:10:49.837Z,67.60
2018-09-04T01:11:49.806Z,67.00
2018-09-04T01:12:49.775Z,66.00
2018-09-04T01:13:49.744Z,65.60
2018-09-04T01:14:49.707Z,64.40
2018-09-04T01:15:49.671Z,66.20
2018-09-04T01:16:49.637Z,65.80
2018-09-04T01:17:49.604Z,66.00
2018-09-04T01:18:49.577Z,66.90
2018-09-04T01:19:49.544Z,64.30
2018-09-04T01:20:49.515Z,66.10
2018-09-04T01:21:49.468Z,66.60
2018-09-04T01:22:49.438Z,66.40
2018-09-04T01:23:49.408Z,66.60
2018-09-04T01:24:49.378Z,65.40
2018-09-04T01:25:49.342Z,66.10
2018-09-04T01:26:49.321Z,66.60
2018-09-04T01:27:49.270Z,67.80
2018-09-04T01:28:49.239Z,66.50
2018-09-04T01:29:49.202Z,69.00
2018-09-04T01:30:49.170Z,66.30
2018-09-04T01:31:49.142Z,67.00
2018-09-04T01:32:49.112Z,67.50
2018-09-04T01:33:49.076Z,66.60
2018-09-04T01:34:49.038Z,67.50
2018-09-04T01:35:49.008Z,68.10
2018-09-04T01:36:48.981Z,66.40
2018-09-04T01:37:48.946Z,65.20
2018-09-04T01:38:48.909Z,67.20
2018-09-04T01:39:48.870Z,66.50
2018-09-04T01:40:48.835Z,67.30
2018-09-04T01:41:48.805Z,67.90
2018-09-04T01:42:48.772Z,65.50
2018-09-04T01:43:48.740Z,67.90
2018-09-04T01:44:48.712Z,67.70
2018-09-04T01:45:48.674Z,68.30
2018-09-04T01:46:48.641Z,68.50
2018-09-04T01:47:48.603Z,69.50
2018-09-04T01:48:48.568Z,67.90
2018-09-04T01:49:48.535Z,69.10
2018-09-04T01:50:48.501Z,67.30
2018-09-04T01:51:48.471Z,68.00
2018-09-04T01:52:48.440Z,67.30
2018-09-04T01:53:48.402Z,66.60
2018-09-04T01:54:48.373Z,69.30
2018-09-04T01:55:48.337Z,66.50
2018-09-04T01:56:48.309Z,66.10
2018-09-04T01:57:48.276Z,67.30
2018-09-04T01:58:48.237Z,65.60
2018-09-04T01:59:48.206Z,65.70
2018-09-04T02:00:48.170Z,65.70
2018-09-04T02:01:48.138Z,65.40
2018-09-04T02:02:48.103Z,66.90
2018-09-04T02:03:48.070Z,65.50
2018-09-04T02:04:48.042Z,63.90
2018-09-04T02:05:48.010Z,64.50
2018-09-04T02:06:47.970Z,65.00
2018-09-04T02:07:47.936Z,64.20
2018-09-04T02:08:47.905Z,66.80
2018-09-04T02:09:47.872Z,66.10
2018-09-04T02:10:47.837Z,66.70
2018-09-04T02:11:47.804Z,63.80
2018-09-04T02:12:47.772Z,66.50
2018-09-04T02:13:47.737Z,64.00
2018-09-04T02:14:47.702Z,65.10
2018-09-04T02:15:47.670Z,65.30
2018-09-04T02:16:47.642Z,64.90
2018-09-04T02:17:47.604Z,63.10
2018-09-04T02:18:47.569Z,60.90
2018-09-04T02:19:47.540Z,61.60
2018-09-04T02:20:47.499Z,62.00
2018-09-04T02:21:47.467Z,62.40
2018-09-04T02:22:47.435Z,62.70
2018-09-04T02:23:47.409Z,62.10
2018-09-04T02:24:47.371Z,62.40
2018-09-04T02:25:47.334Z,63.90
2018-09-04T02:26:47.303Z,60.90
2018-09-04T02:27:47.270Z,59.90
2018-09-04T02:28:47.250Z,59.50
2018-09-04T02:29:47.206Z,58.10
2018-09-04T02:30:47.171Z,60.80
2018-09-04T02:31:47.135Z,60.90
2018-09-04T02:32:47.101Z,60.30
2018-09-04T02:33:47.067Z,60.60
2018-09-04T02:34:47.035Z,61.90
2018-09-04T02:35:47.028Z,59.50
2018-09-04T02:36:46.973Z,58.90
2018-09-04T02:37:46.939Z,59.00
2018-09-04T02:38:46.909Z,61.50
2018-09-04T02:39:46.869Z,62.20
2018-09-04T02:40:46.833Z,58.90
2018-09-04T02:41:46.809Z,59.80
2018-09-04T02:42:46.771Z,61.70
2018-09-04T02:43:46.735Z,62.80
2018-09-04T02:44:46.703Z,62.80
2018-09-04T02:45:46.667Z,60.70
2018-09-04T02:46:46.640Z,63.00
2018-09-04T02:47:46.605Z,64.20
2018-09-04T02:48:46.574Z,64.90
2018-09-04T02:49:46.541Z,62.60
2018-09-04T02:50:46.507Z,65.10
2018-09-04T02:51:46.472Z,63.60
2018-09-04T02:52:46.438Z,65.70
2018-09-04T02:53:46.409Z,63.80
2018-09-04T02:54:46.371Z,63.00
2018-09-04T02:55:46.345Z,64.70
2018-09-04T02:56:46.308Z,61.80
2018-09-04T02:57:46.276Z,65.60
2018-09-04T02:58:46.240Z,62.10
2018-09-04T02:59:46.209Z,60.60
2018-09-04T03:00:46.180Z,62.10
2018-09-04T03:01:46.139Z,62.80
2018-09-04T03:02:46.112Z,63.80
2018-09-04T03:03:46.069Z,64.00
2018-09-04T03:04:46.034Z,63.80
2018-09-04T03:05:46.001Z,63.80
2018-09-04T03:06:45.969Z,62.60
2018-09-04T03:07:45.937Z,61.80
2018-09-04T03:08:45.911Z,64.30
2018-09-04T03:09:45.873Z,61.50
2018-09-04T03:10:45.841Z,65.30
2018-09-04T03:11:45.804Z,62.70
2018-09-04T03:12:45.767Z,64.60
2018-09-04T03:13:45.787Z,63.80
2018-09-04T03:14:45.704Z,65.10
2018-09-04T03:15:45.669Z,63.30
2018-09-04T03:16:45.634Z,63.90
2018-09-04T03:17:45.606Z,66.30
2018-09-04T03:18:45.570Z,65.30
2018-09-04T03:19:45.539Z,64.60
2018-09-04T03:20:45.508Z,64.30
2018-09-04T03:21:45.477Z,64.00
2018-09-04T03:22:45.438Z,65.50
2018-09-04T03:23:45.404Z,64.70
2018-09-04T03:24:45.374Z,66.30
2018-09-04T03:25:45.338Z,67.30
2018-09-04T03:26:45.309Z,66.40
2018-09-04T03:27:45.278Z,63.90
2018-09-04T03:28:45.241Z,64.60
2018-09-04T03:29:45.226Z,65.00
2018-09-04T03:30:45.170Z,65.80
2018-09-04T03:31:45.140Z,65.90
2018-09-04T03:32:45.110Z,66.10
2018-09-04T03:33:45.075Z,66.10
2018-09-04T03:34:45.041Z,66.00
2018-09-04T03:35:45.008Z,67.00
2018-09-04T03:36:44.977Z,67.60
2018-09-04T03:37:44.934Z,67.30
2018-09-04T03:38:44.908Z,66.20
2018-09-04T03:39:44.876Z,68.20
2018-09-04T03:40:44.848Z,69.60
2018-09-04T03:41:44.811Z,67.90
2018-09-04T03:42:44.776Z,66.30
2018-09-04T03:43:44.742Z,68.80
2018-09-04T03:44:44.711Z,68.20
2018-09-04T03:45:44.680Z,66.00
2018-09-04T03:46:44.641Z,67.70
2018-09-04T03:47:44.616Z,66.40
2018-09-04T03:48:44.571Z,66.30
2018-09-04T03:49:44.538Z,68.70
2018-09-04T03:50:44.505Z,66.30
2018-09-04T03:51:44.474Z,67.40
2018-09-04T03:52:44.443Z,67.40
2018-09-04T04:06:45.288Z,51.50
2018-09-04T04:07:45.200Z,69.70
2018-09-04T04:08:45.166Z,76.10
2018-09-04T04:09:45.130Z,77.70
2018-09-04T04:10:45.093Z,75.00
2018-09-04T04:11:45.056Z,77.10
2018-09-04T04:12:45.019Z,74.90
2018-09-04T04:13:44.985Z,75.50
2018-09-04T04:14:44.944Z,71.90
2018-09-04T04:15:44.912Z,75.20
2018-09-04T04:16:44.877Z,74.90
2018-09-04T04:17:44.954Z,73.30
2018-09-04T04:18:44.914Z,71.10
2018-09-04T04:19:44.771Z,71.80
2018-09-04T04:20:44.734Z,73.50
2018-09-04T04:21:44.701Z,73.70
2018-09-04T04:22:44.668Z,72.10
2018-09-04T04:23:44.674Z,73.30
2018-09-04T04:24:44.604Z,75.40
2018-09-04T04:25:44.566Z,73.00
2018-09-04T04:26:44.530Z,72.40
2018-09-04T04:27:44.500Z,71.90
2018-09-04T04:28:44.465Z,74.70
2018-09-04T04:29:44.428Z,73.50
2018-09-04T04:30:44.407Z,73.50
2018-09-04T04:31:44.356Z,72.20
2018-09-04T04:32:44.329Z,71.60
2018-09-04T04:33:44.292Z,70.30
2018-09-04T04:34:44.254Z,69.00
2018-09-04T04:35:44.231Z,68.80
2018-09-04T04:36:44.198Z,70.40
2018-09-04T04:37:44.162Z,70.20
2018-09-04T04:38:44.124Z,67.00
2018-09-04T04:39:44.083Z,67.60
2018-09-04T04:40:44.056Z,68.90
2018-09-04T04:41:44.026Z,69.40
2018-09-04T04:42:43.990Z,69.90
2018-09-04T04:43:43.960Z,70.70
2018-09-04T04:44:43.925Z,69.10
2018-09-04T04:45:43.891Z,70.10
2018-09-04T04:46:43.850Z,70.20
2018-09-04T04:47:43.834Z,70.00
2018-09-04T04:48:43.788Z,71.00
2018-09-04T04:49:43.752Z,71.00
2018-09-04T04:50:43.717Z,71.90
2018-09-04T04:51:43.678Z,71.80
2018-09-04T04:52:44.012Z,72.30
2018-09-04T04:53:43.616Z,74.30
2018-09-04T04:54:43.577Z,74.50
2018-09-04T04:55:43.549Z,76.90
2018-09-04T04:56:43.516Z,75.60
2018-09-04T04:57:43.480Z,76.40
2018-09-04T04:58:43.445Z,77.00
2018-09-04T04:59:43.417Z,74.80
2018-09-04T05:00:43.382Z,76.20
2018-09-04T05:01:43.355Z,76.80
2018-09-04T05:02:43.315Z,75.20
2018-09-04T05:03:43.275Z,76.50
2018-09-04T05:04:43.243Z,76.70
2018-09-04T05:05:43.211Z,78.60
2018-09-04T05:06:43.175Z,76.60
2018-09-04T05:07:43.147Z,76.80
2018-09-04T05:08:43.109Z,81.40
2018-09-04T05:09:43.075Z,79.00
2018-09-04T05:10:43.041Z,80.70
2018-09-04T05:11:43.003Z,81.00
2018-09-04T05:12:42.970Z,81.80
2018-09-04T05:13:42.939Z,78.50
2018-09-04T05:14:42.914Z,78.20
2018-09-04T05:15:42.867Z,78.00
2018-09-04T05:16:42.836Z,77.30
2018-09-04T05:17:42.803Z,74.90
2018-09-04T05:18:42.765Z,74.50
2018-09-04T05:19:42.744Z,78.00
2018-09-04T05:20:42.712Z,78.40
2018-09-04T05:21:42.668Z,75.80
2018-09-04T05:22:42.664Z,77.10
2018-09-04T05:23:42.610Z,76.20
2018-09-04T05:24:42.569Z,75.00
2018-09-04T05:25:42.535Z,76.40
2018-09-04T05:26:42.494Z,77.40
2018-09-04T05:27:42.469Z,79.00
2018-09-04T05:28:42.433Z,79.30
2018-09-04T05:29:42.403Z,80.10
2018-09-04T05:30:42.367Z,78.60
2018-09-04T05:31:42.340Z,78.80
2018-09-04T05:32:42.298Z,80.40
2018-09-04T05:33:42.265Z,80.90
2018-09-04T05:34:42.243Z,82.50
2018-09-04T05:35:42.191Z,82.30
2018-09-04T05:36:42.197Z,81.70
2018-09-04T05:37:42.128Z,82.80
2018-09-04T05:38:42.092Z,81.90
2018-09-04T05:39:42.061Z,82.70
2018-09-04T05:40:42.027Z,80.80
2018-09-04T05:41:41.993Z,80.90
2018-09-04T05:42:41.961Z,80.80
2018-09-04T05:43:41.921Z,77.00
2018-09-04T05:44:41.892Z,70.40
2018-09-04T05:45:41.865Z,67.80
2018-09-04T05:46:41.831Z,68.10
2018-09-04T05:47:41.787Z,68.40
2018-09-04T05:48:41.759Z,67.70
2018-09-04T05:49:41.727Z,69.50
2018-09-04T05:50:41.689Z,65.40
2018-09-04T05:51:41.662Z,65.10
2018-09-04T05:52:41.683Z,67.50
2018-09-04T05:53:41.592Z,68.30
2018-09-04T05:54:41.559Z,71.40
2018-09-04T05:55:41.518Z,69.70
2018-09-04T05:56:41.490Z,69.50
2018-09-04T05:57:41.459Z,71.50
2018-09-04T05:58:41.417Z,70.20
2018-09-04T05:59:41.393Z,69.30
2018-09-04T06:00:41.356Z,70.40
2018-09-04T06:01:41.318Z,70.80
2018-09-04T06:02:41.285Z,71.20
2018-09-04T06:03:41.258Z,70.40
2018-09-04T06:04:41.226Z,69.00
2018-09-04T06:05:41.198Z,68.60
2018-09-04T06:06:41.156Z,68.80
2018-09-04T06:07:41.118Z,66.50
2018-09-04T06:08:41.090Z,64.10
2018-09-04T06:09:41.072Z,63.40
2018-09-04T06:10:41.020Z,63.60
2018-09-04T06:11:40.995Z,63.80
2018-09-04T06:12:40.954Z,62.00
2018-09-04T06:13:40.937Z,61.20
2018-09-04T06:14:40.891Z,60.50
2018-09-04T06:15:40.853Z,63.20
2018-09-04T06:16:40.820Z,61.10
2018-09-04T06:17:40.792Z,61.60
2018-09-04T06:18:40.756Z,61.30
2018-09-04T06:19:40.716Z,61.70
2018-09-04T06:20:40.686Z,61.40
2018-09-04T06:21:40.654Z,62.10
2018-09-04T06:22:40.625Z,63.00
2018-09-04T06:23:40.591Z,62.20
2018-09-04T06:24:40.559Z,62.40
2018-09-04T06:25:40.522Z,63.50
2018-09-04T06:26:40.500Z,62.10
2018-09-04T06:27:40.452Z,61.90
2018-09-04T06:28:40.421Z,64.70
2018-09-04T06:29:40.470Z,62.00
2018-09-04T06:30:40.354Z,61.80
2018-09-04T06:31:40.325Z,61.20
2018-09-04T06:32:40.292Z,61.50
2018-09-04T06:33:40.264Z,62.30
2018-09-04T06:34:40.223Z,62.60
2018-09-04T06:35:40.194Z,57.30
2018-09-04T06:36:40.220Z,42.20
2018-09-04T06:37:40.127Z,47.20
2018-09-04T06:38:40.094Z,44.20
2018-09-04T06:39:40.057Z,51.50
2018-09-04T06:40:40.036Z,44.40
2018-09-04T06:41:39.993Z,53.30
2018-09-04T06:42:39.959Z,53.10
2018-09-04T06:43:39.935Z,56.50
2018-09-04T06:44:39.901Z,53.50
2018-09-04T06:45:39.865Z,51.10
2018-09-04T06:46:39.926Z,54.10
2018-09-04T06:47:39.798Z,52.00
2018-09-04T06:48:39.765Z,55.60
2018-09-04T06:49:39.732Z,50.10
2018-09-04T06:50:39.702Z,53.60
2018-09-04T06:51:39.665Z,49.90
2018-09-04T06:52:39.638Z,57.90
2018-09-04T06:53:39.610Z,57.60
2018-09-04T06:54:39.673Z,58.80
2018-09-04T06:55:39.537Z,57.60
2018-09-04T06:56:39.504Z,52.40
2018-09-04T06:57:39.473Z,52.30
2018-09-04T06:58:39.441Z,57.00
2018-09-04T06:59:39.403Z,53.20
2018-09-04T07:00:39.373Z,55.50
2018-09-04T07:01:39.340Z,48.20
2018-09-04T07:02:39.307Z,49.70
2018-09-04T07:03:39.280Z,47.00
2018-09-04T07:04:39.247Z,48.60
2018-09-04T07:05:39.236Z,54.30
2018-09-04T07:06:39.177Z,46.50
2018-09-04T07:07:39.148Z,48.90
2018-09-04T07:08:39.114Z,48.90
2018-09-04T07:09:39.083Z,46.20
2018-09-04T07:10:39.052Z,41.30
2018-09-04T07:11:39.013Z,41.70
2018-09-04T07:12:38.983Z,43.30
2018-09-04T07:13:38.967Z,41.90
2018-09-04T07:14:39.143Z,43.70
2018-09-04T07:15:38.942Z,44.50
2018-09-04T07:16:38.856Z,44.70
2018-09-04T07:17:38.824Z,45.30
2018-09-04T07:18:38.793Z,43.80
2018-09-04T07:19:38.759Z,40.30
2018-09-04T07:20:38.728Z,37.80
2018-09-04T07:21:38.696Z,38.80
2018-09-04T07:22:38.663Z,36.20
2018-09-04T07:23:38.627Z,37.00
2018-09-04T07:24:38.600Z,38.30
2018-09-04T07:25:38.566Z,36.60
2018-09-04T07:26:38.530Z,39.00
2018-09-04T07:27:38.505Z,38.80
2018-09-04T07:28:38.472Z,40.10
2018-09-04T07:29:38.437Z,38.10
2018-09-04T07:30:38.415Z,40.40
2018-09-04T07:31:38.368Z,40.60
2018-09-04T07:32:38.345Z,38.80
2018-09-04T07:33:38.309Z,39.20
2018-09-04T07:34:38.279Z,38.90
2018-09-04T07:35:38.280Z,40.80
2018-09-04T07:36:38.213Z,39.50
2018-09-04T07:37:38.214Z,38.10
2018-09-04T07:38:38.166Z,39.20
2018-09-04T07:39:38.122Z,38.70
2018-09-04T07:40:38.089Z,35.90
2018-09-04T07:41:38.055Z,36.60
2018-09-04T07:42:38.024Z,35.60
2018-09-04T07:43:37.992Z,36.40
2018-09-04T07:44:37.955Z,32.80
2018-09-04T07:45:37.922Z,30.80
2018-09-04T07:46:37.888Z,30.80
2018-09-04T07:47:37.863Z,31.30
2018-09-04T07:48:37.829Z,30.30
2018-09-04T07:49:37.797Z,31.10
2018-09-04T07:50:37.766Z,29.10
2018-09-04T07:51:37.737Z,29.40
2018-09-04T07:52:37.699Z,28.50
2018-09-04T07:53:37.726Z,27.50
2018-09-04T07:54:37.661Z,24.60
2018-09-04T07:55:37.603Z,26.80
2018-09-04T07:56:37.573Z,22.30
2018-09-04T07:57:37.545Z,25.50
2018-09-04T07:58:37.507Z,25.60
2018-09-04T07:59:37.480Z,27.10
2018-09-04T08:00:37.448Z,26.60
2018-09-04T08:01:37.416Z,26.90
2018-09-04T08:02:37.388Z,26.30
2018-09-04T08:03:37.352Z,26.70
2018-09-04T08:04:37.317Z,25.30
2018-09-04T08:05:37.288Z,25.40
2018-09-04T08:06:37.254Z,25.80
2018-09-04T08:07:37.232Z,26.90
2018-09-04T08:08:37.196Z,25.60
2018-09-04T08:09:37.160Z,26.10
2018-09-04T08:10:37.129Z,26.50
2018-09-04T08:11:37.101Z,27.60
2018-09-04T08:12:37.068Z,26.30
2018-09-04T08:13:37.051Z,27.40
2018-09-04T08:14:37.006Z,23.70
2018-09-04T08:15:36.996Z,22.80
2018-09-04T08:16:36.939Z,22.20
2018-09-04T08:17:36.907Z,22.90
2018-09-04T08:18:36.930Z,23.90
2018-09-04T08:19:36.855Z,23.50
2018-09-04T08:20:36.874Z,21.50
2018-09-04T08:21:36.796Z,22.00
2018-09-04T08:22:36.757Z,21.90
2018-09-04T08:23:36.719Z,22.20
2018-09-04T08:24:36.684Z,22.00
2018-09-04T08:25:36.662Z,22.50
2018-09-04T08:26:36.644Z,21.90
2018-09-04T08:27:36.593Z,21.90
2018-09-04T08:28:36.559Z,22.90
2018-09-04T08:29:36.531Z,22.70
2018-09-04T08:30:36.502Z,23.00
2018-09-04T08:31:36.480Z,24.00
2018-09-04T08:32:36.444Z,24.00
2018-09-04T08:33:36.410Z,22.10
2018-09-04T08:34:36.376Z,23.70
2018-09-04T08:35:36.342Z,21.50
2018-09-04T08:36:36.307Z,20.70
2018-09-04T08:37:36.277Z,21.40
2018-09-04T08:38:36.251Z,22.80
2018-09-04T08:39:36.221Z,22.70
2018-09-04T08:40:36.193Z,22.80
2018-09-04T08:41:36.153Z,21.20
2018-09-04T08:42:36.124Z,20.40
2018-09-04T08:43:36.095Z,20.60
2018-09-04T08:44:36.066Z,19.50
2018-09-04T08:45:36.037Z,19.70
2018-09-04T08:46:36.006Z,17.60
2018-09-04T08:47:35.975Z,18.50
2018-09-04T08:48:35.941Z,19.60
2018-09-04T08:49:35.908Z,22.40
2018-09-04T08:50:35.918Z,20.20
2018-09-04T08:51:35.848Z,25.30
2018-09-04T08:52:35.822Z,16.70
2018-09-04T08:53:35.837Z,16.40
2018-09-04T08:54:35.755Z,23.20
2018-09-04T08:55:35.735Z,22.60
2018-09-04T08:56:35.695Z,16.50
2018-09-04T08:57:35.671Z,18.50
2018-09-04T08:58:35.683Z,17.60
2018-09-04T08:59:35.611Z,17.70
2018-09-04T09:00:35.567Z,19.00
2018-09-04T09:01:35.544Z,18.90
2018-09-04T09:02:35.507Z,18.20
2018-09-04T09:03:35.509Z,16.90
2018-09-04T09:04:35.449Z,16.50
2018-09-04T09:05:35.450Z,15.40
2018-09-04T09:06:35.386Z,19.60
2018-09-04T09:07:35.353Z,15.00
2018-09-04T09:08:35.353Z,15.20
2018-09-04T09:09:35.289Z,21.10
2018-09-04T09:10:35.262Z,15.30
2018-09-04T09:11:35.242Z,13.90
2018-09-04T09:12:35.212Z,13.60
2018-09-04T09:13:35.170Z,13.70
2018-09-04T09:14:35.137Z,14.80
2018-09-04T09:15:35.108Z,13.30
2018-09-04T09:16:35.101Z,13.30
2018-09-04T09:17:35.049Z,12.60
2018-09-04T09:18:35.019Z,14.00
2018-09-04T09:19:34.983Z,13.30
2018-09-04T09:20:34.951Z,13.70
2018-09-04T09:21:34.920Z,13.30
2018-09-04T09:22:34.893Z,15.30
2018-09-04T09:23:34.869Z,14.90
2018-09-04T09:24:34.844Z,13.70
2018-09-04T09:25:34.809Z,13.10
2018-09-04T09:26:34.772Z,13.30
2018-09-04T09:27:34.741Z,10.90
2018-09-04T09:28:34.715Z,11.20
2018-09-04T09:29:34.694Z,11.30
2018-09-04T09:30:34.650Z,12.20
2018-09-04T09:31:34.644Z,12.10
2018-09-04T09:32:34.596Z,11.60
2018-09-04T09:33:34.557Z,11.90
2018-09-04T09:34:34.530Z,11.70
2018-09-04T09:35:34.505Z,11.60
2018-09-04T09:36:34.557Z,11.90
2018-09-04T09:37:34.446Z,12.10
2018-09-04T09:38:34.408Z,11.90
2018-09-04T09:39:34.377Z,12.10
2018-09-04T09:40:34.345Z,12.30
2018-09-04T09:41:34.319Z,11.80
2018-09-04T09:42:34.284Z,11.90
2018-09-04T09:43:34.256Z,12.60
2018-09-04T09:44:34.238Z,12.30
2018-09-04T09:45:34.193Z,11.70
2018-09-04T09:46:34.171Z,11.80
2018-09-04T09:47:34.137Z,11.70
2018-09-04T09:48:34.109Z,11.40
2018-09-04T09:49:34.077Z,11.60
2018-09-04T09:50:34.067Z,11.00
2018-09-04T09:51:34.012Z,11.00
2018-09-04T09:52:34.064Z,11.40
2018-09-04T09:53:34.190Z,11.30
2018-09-04T09:54:33.923Z,11.30
2018-09-04T09:55:33.900Z,11.10
2018-09-04T09:56:33.870Z,10.80
2018-09-04T09:57:33.840Z,10.80
2018-09-04T09:58:33.805Z,11.90
2018-09-04T09:59:33.854Z,11.30
2018-09-04T10:00:33.741Z,11.10
2018-09-04T10:01:33.738Z,12.10
2018-09-04T10:02:33.684Z,11.60
2018-09-04T10:03:33.651Z,12.30
2018-09-04T10:04:33.635Z,11.80
2018-09-04T10:05:33.591Z,12.20
2018-09-04T10:06:33.567Z,12.60
2018-09-04T10:21:09.232Z,15.70
2018-09-04T10:22:09.162Z,18.10
2018-09-04T10:23:09.122Z,18.60
2018-09-04T10:24:09.094Z,18.50
2018-09-04T10:25:09.061Z,19.10
2018-09-04T10:26:09.025Z,18.60
2018-09-04T10:27:08.988Z,18.40
2018-09-04T10:28:08.955Z,17.80
2018-09-04T10:29:08.924Z,18.90
2018-09-04T10:30:08.889Z,19.80
2018-09-04T10:31:08.862Z,24.40
2018-09-04T10:32:08.828Z,21.80
2018-09-04T10:33:08.796Z,22.60
2018-09-04T10:34:08.767Z,21.00
2018-09-04T10:35:08.733Z,19.70
2018-09-04T10:36:08.713Z,25.30
2018-09-04T10:37:08.673Z,32.20
2018-09-04T10:38:08.636Z,32.50
2018-09-04T10:39:08.621Z,27.50
2018-09-04T10:40:08.582Z,24.10
2018-09-04T10:41:08.549Z,24.50
2018-09-04T10:42:08.544Z,23.70
2018-09-04T10:43:08.489Z,22.40
2018-09-04T10:44:08.519Z,22.30
2018-09-04T10:45:08.428Z,21.20
2018-09-04T10:46:08.396Z,22.10
2018-09-04T10:47:08.362Z,22.40
2018-09-04T10:48:08.333Z,24.00
2018-09-04T10:49:08.305Z,21.60
2018-09-04T10:50:08.269Z,21.50
2018-09-04T10:51:08.248Z,22.20
2018-09-04T10:52:08.220Z,21.70
2018-09-04T10:53:08.183Z,21.70
2018-09-04T10:54:08.154Z,21.70
2018-09-04T10:55:08.116Z,21.80
2018-09-04T10:56:08.093Z,20.30
2018-09-04T10:57:08.058Z,21.60
2018-09-04T10:58:08.035Z,19.80
2018-09-04T10:59:07.994Z,21.70
2018-09-04T11:00:07.967Z,20.80
2018-09-04T11:01:07.950Z,19.30
2018-09-04T11:02:07.904Z,19.80
2018-09-04T11:03:07.882Z,20.40
2018-09-04T11:04:07.849Z,18.70
2018-09-04T11:05:07.818Z,18.50
2018-09-04T11:06:07.787Z,17.30
2018-09-04T11:07:07.760Z,18.10
2018-09-04T11:08:07.725Z,18.70
2018-09-04T11:09:07.728Z,17.30
2018-09-04T11:10:07.665Z,17.70
2018-09-04T11:11:07.638Z,17.20
2018-09-04T11:12:07.602Z,16.40
2018-09-04T11:13:07.576Z,15.70
2018-09-04T11:14:07.537Z,16.70
2018-09-04T11:15:07.518Z,34.50
2018-09-04T11:16:07.487Z,21.50
2018-09-04T11:17:07.451Z,15.50
2018-09-04T11:18:07.422Z,16.30
2018-09-04T11:19:07.391Z,15.80
2018-09-04T11:20:07.357Z,15.80
2018-09-04T11:21:07.326Z,16.70
2018-09-04T11:22:07.295Z,15.70
2018-09-04T11:23:07.276Z,15.60
2018-09-04T11:24:07.239Z,43.40
2018-09-04T11:25:07.210Z,29.50
2018-09-04T11:26:07.182Z,22.20
2018-09-04T11:27:07.143Z,14.10
2018-09-04T11:28:07.115Z,14.40
2018-09-04T11:29:07.088Z,13.00
2018-09-04T11:30:07.058Z,13.60
2018-09-04T11:31:07.022Z,13.60
2018-09-04T11:32:07.008Z,13.20
2018-09-04T11:33:06.967Z,14.60
2018-09-04T11:34:06.933Z,14.60
2018-09-04T11:35:06.912Z,16.70
2018-09-04T11:36:06.877Z,13.50
2018-09-04T11:37:06.849Z,12.60
2018-09-04T11:38:06.816Z,14.00
2018-09-04T11:39:06.782Z,13.40
2018-09-04T11:40:06.758Z,14.00
2018-09-04T11:41:06.728Z,13.80
2018-09-04T11:42:06.689Z,13.00
2018-09-04T11:43:06.670Z,12.50
2018-09-04T11:44:06.636Z,35.30
2018-09-04T11:45:06.607Z,22.60
2018-09-04T11:46:06.573Z,16.40
2018-09-04T11:47:06.547Z,14.40
2018-09-04T11:48:06.514Z,18.90
2018-09-04T11:49:06.486Z,14.00
2018-09-04T11:50:06.455Z,14.40
2018-09-04T11:51:06.421Z,12.90
2018-09-04T11:52:06.392Z,13.40
2018-09-04T11:53:06.363Z,13.20
2018-09-04T11:54:06.329Z,15.20
2018-09-04T11:55:06.311Z,16.10
2018-09-04T11:56:06.276Z,15.20
2018-09-04T11:57:06.251Z,14.50
2018-09-04T11:58:06.216Z,15.80
2018-09-04T11:59:06.181Z,16.70
2018-09-04T12:00:06.155Z,15.90
2018-09-04T12:01:06.124Z,16.10
2018-09-04T12:02:06.098Z,15.70
2018-09-04T12:03:06.069Z,15.30
2018-09-04T12:04:06.035Z,15.00
2018-09-04T12:05:06.006Z,14.50
2018-09-04T12:06:05.974Z,16.90
2018-09-04T12:07:05.948Z,14.70
2018-09-04T12:08:05.915Z,13.10
2018-09-04T12:09:05.889Z,12.70
2018-09-04T12:10:05.859Z,13.00
2018-09-04T12:11:05.828Z,13.60
2018-09-04T12:12:05.791Z,13.10
2018-09-04T12:13:05.788Z,13.90
2018-09-04T12:14:05.733Z,12.70
2018-09-04T12:15:05.706Z,12.80
2018-09-04T12:16:05.680Z,13.80
2018-09-04T12:17:05.643Z,19.00
2018-09-04T12:18:05.615Z,25.10
2018-09-04T12:19:05.598Z,26.90
2018-09-04T12:20:05.560Z,26.30
2018-09-04T12:21:05.661Z,26.70
2018-09-04T12:22:05.503Z,26.40
2018-09-04T12:23:05.466Z,25.60
2018-09-04T12:24:05.437Z,26.70
2018-09-04T12:25:05.403Z,27.30
2018-09-04T12:26:05.374Z,26.30
2018-09-04T12:27:05.375Z,25.30
2018-09-04T12:28:05.318Z,25.60
2018-09-04T12:29:05.295Z,25.00
2018-09-04T12:30:05.256Z,24.30
2018-09-04T12:31:05.230Z,24.20
2018-09-04T12:32:05.204Z,23.20
2018-09-04T12:33:05.172Z,23.10
2018-09-04T12:34:05.209Z,22.70
2018-09-04T12:35:05.108Z,20.90
2018-09-04T12:36:05.073Z,20.40
2018-09-04T12:37:05.043Z,19.70
2018-09-04T12:38:05.017Z,18.60
2018-09-04T12:39:04.987Z,19.60
2018-09-04T12:40:04.963Z,17.60
2018-09-04T12:41:04.931Z,19.50
2018-09-04T12:42:04.898Z,19.50
2018-09-04T12:43:04.868Z,19.60
2018-09-04T12:44:04.834Z,19.90
2018-09-04T12:45:04.807Z,18.60
2018-09-04T12:46:04.778Z,17.70
2018-09-04T12:47:04.750Z,19.30
2018-09-04T12:48:04.802Z,19.50
2018-09-04T12:49:04.688Z,18.70
2018-09-04T12:50:04.710Z,19.00
2018-09-04T12:51:04.628Z,34.60
2018-09-04T12:52:04.642Z,17.40
2018-09-04T12:53:04.573Z,17.10
2018-09-04T12:54:04.538Z,17.30
2018-09-04T12:55:04.509Z,15.20
2018-09-04T12:56:04.476Z,14.80
2018-09-04T12:57:04.452Z,16.00
2018-09-04T12:58:04.423Z,15.90
2018-09-04T12:59:04.392Z,15.70
2018-09-04T13:00:04.375Z,16.20
2018-09-04T13:01:04.334Z,19.90
2018-09-04T13:02:04.302Z,21.70
2018-09-04T13:03:04.272Z,18.00
2018-09-04T13:04:04.255Z,19.50
2018-09-04T13:05:04.223Z,20.20
2018-09-04T13:06:04.186Z,27.10
2018-09-04T13:07:04.152Z,19.50
2018-09-04T13:08:04.121Z,18.30
2018-09-04T13:09:04.189Z,17.20
2018-09-04T13:10:04.066Z,16.70
2018-09-04T13:11:04.035Z,17.40
2018-09-04T13:12:04.015Z,16.10
2018-09-04T13:13:03.979Z,16.60
2018-09-04T13:14:03.953Z,18.50
2018-09-04T13:15:03.916Z,18.90
2018-09-04T13:16:03.884Z,15.90
2018-09-04T13:17:03.860Z,16.70
2018-09-04T13:18:03.823Z,17.00
2018-09-04T13:19:03.796Z,19.10